sensor_id;sensor_type;location;lat;lon;timestamp;pressure;altitude;pressure_sealevel;temperature;humidity
4199;BME280;2113;50.946;14.610;2023-04-22T00:02:02;96744.13;;;3.74;87.08
4199;BME280;2113;50.946;14.610;2023-04-22T00:04:30;96741.44;;;3.75;87.30
4199;BME280;2113;50.946;14.610;2023-04-22T00:07:00;96728.38;;;3.89;86.67
4199;BME280;2113;50.946;14.610;2023-04-22T00:09:28;96730.56;;;3.96;86.62
4199;BME280;2113;50.946;14.610;2023-04-22T00:11:58;96722.25;;;4.03;86.17
4199;BME280;2113;50.946;14.610;2023-04-22T00:14:28;96719.84;;;4.13;85.72
4199;BME280;2113;50.946;14.610;2023-04-22T00:16:56;96727.19;;;4.19;85.40
4199;BME280;2113;50.946;14.610;2023-04-22T00:19:26;96727.19;;;4.19;85.41
4199;BME280;2113;50.946;14.610;2023-04-22T00:21:54;96732.66;;;4.14;85.03
4199;BME280;2113;50.946;14.610;2023-04-22T00:24:22;96722.44;;;4.13;85.38
4199;BME280;2113;50.946;14.610;2023-04-22T00:26:51;96720.88;;;4.10;85.15
4199;BME280;2113;50.946;14.610;2023-04-22T00:29:19;96727.16;;;3.95;85.09
4199;BME280;2113;50.946;14.610;2023-04-22T00:31:47;96717.25;;;3.76;85.59
4199;BME280;2113;50.946;14.610;2023-04-22T00:34:16;96715.91;;;3.71;85.94
4199;BME280;2113;50.946;14.610;2023-04-22T00:36:47;96722.34;;;3.65;86.24
4199;BME280;2113;50.946;14.610;2023-04-22T00:39:17;96716.25;;;3.53;86.24
4199;BME280;2113;50.946;14.610;2023-04-22T00:41:45;96715.19;;;3.56;86.73
4199;BME280;2113;50.946;14.610;2023-04-22T00:44:14;96720.06;;;3.48;86.57
4199;BME280;2113;50.946;14.610;2023-04-22T00:46:42;96712.72;;;3.29;87.30
4199;BME280;2113;50.946;14.610;2023-04-22T00:49:12;96712.84;;;3.15;87.91
4199;BME280;2113;50.946;14.610;2023-04-22T00:51:42;96707.28;;;3.21;88.14
4199;BME280;2113;50.946;14.610;2023-04-22T00:54:11;96713.66;;;3.28;88.43
4199;BME280;2113;50.946;14.610;2023-04-22T00:56:39;96710.28;;;3.40;88.45
4199;BME280;2113;50.946;14.610;2023-04-22T00:59:08;96706.25;;;3.49;88.46
4199;BME280;2113;50.946;14.610;2023-04-22T01:01:37;96699.31;;;3.62;88.03
4199;BME280;2113;50.946;14.610;2023-04-22T01:04:06;96706.00;;;3.65;87.27
4199;BME280;2113;50.946;14.610;2023-04-22T01:06:38;96705.22;;;3.39;86.91
4199;BME280;2113;50.946;14.610;2023-04-22T01:09:06;96706.97;;;3.38;86.89
4199;BME280;2113;50.946;14.610;2023-04-22T01:11:36;96709.22;;;3.43;87.41
4199;BME280;2113;50.946;14.610;2023-04-22T01:14:04;96711.41;;;3.49;87.34
4199;BME280;2113;50.946;14.610;2023-04-22T01:16:33;96703.53;;;3.63;86.63
4199;BME280;2113;50.946;14.610;2023-04-22T01:19:05;96707.25;;;3.59;86.60
4199;BME280;2113;50.946;14.610;2023-04-22T01:21:34;96705.50;;;3.60;86.89
4199;BME280;2113;50.946;14.610;2023-04-22T01:28:04;96705.22;;;3.39;87.00
4199;BME280;2113;50.946;14.610;2023-04-22T01:30:32;96708.19;;;3.20;87.44
4199;BME280;2113;50.946;14.610;2023-04-22T01:33:01;96708.28;;;3.06;88.53
4199;BME280;2113;50.946;14.610;2023-04-22T01:35:31;96704.16;;;3.03;88.30
4199;BME280;2113;50.946;14.610;2023-04-22T01:38:03;96698.59;;;2.97;88.45
4199;BME280;2113;50.946;14.610;2023-04-22T01:40:32;96701.81;;;3.00;89.20
4199;BME280;2113;50.946;14.610;2023-04-22T01:43:01;96695.94;;;3.11;88.98
4199;BME280;2113;50.946;14.610;2023-04-22T01:45:31;96701.19;;;3.35;88.06
4199;BME280;2113;50.946;14.610;2023-04-22T01:48:00;96690.47;;;3.41;87.54
4199;BME280;2113;50.946;14.610;2023-04-22T01:50:28;96694.47;;;3.45;87.66
4199;BME280;2113;50.946;14.610;2023-04-22T01:52:57;96692.50;;;3.48;87.79
4199;BME280;2113;50.946;14.610;2023-04-22T01:55:26;96689.09;;;3.48;87.09
4199;BME280;2113;50.946;14.610;2023-04-22T01:57:55;96691.38;;;3.40;88.01
4199;BME280;2113;50.946;14.610;2023-04-22T02:00:23;96693.53;;;3.46;87.87
4199;BME280;2113;50.946;14.610;2023-04-22T02:02:53;96682.00;;;3.39;87.93
4199;BME280;2113;50.946;14.610;2023-04-22T02:05:25;96684.34;;;3.29;87.66
4199;BME280;2113;50.946;14.610;2023-04-22T02:07:53;96684.88;;;3.21;88.02
4199;BME280;2113;50.946;14.610;2023-04-22T02:10:22;96679.63;;;3.23;88.26
4199;BME280;2113;50.946;14.610;2023-04-22T02:12:50;96675.47;;;3.20;88.11
4199;BME280;2113;50.946;14.610;2023-04-22T02:15:19;96681.56;;;3.19;88.35
4199;BME280;2113;50.946;14.610;2023-04-22T02:17:49;96674.16;;;3.28;88.37
4199;BME280;2113;50.946;14.610;2023-04-22T02:20:20;96674.25;;;3.13;87.89
4199;BME280;2113;50.946;14.610;2023-04-22T02:22:49;96672.06;;;2.95;88.26
4199;BME280;2113;50.946;14.610;2023-04-22T02:25:18;96670.22;;;2.97;88.42
4199;BME280;2113;50.946;14.610;2023-04-22T02:27:49;96675.97;;;2.88;89.07
4199;BME280;2113;50.946;14.610;2023-04-22T02:30:17;96666.38;;;2.90;89.33
4199;BME280;2113;50.946;14.610;2023-04-22T02:32:46;96670.63;;;2.91;89.08
4199;BME280;2113;50.946;14.610;2023-04-22T02:35:15;96665.78;;;2.99;89.18
4199;BME280;2113;50.946;14.610;2023-04-22T02:37:45;96662.06;;;3.03;89.26
4199;BME280;2113;50.946;14.610;2023-04-22T02:40:13;96661.13;;;3.04;88.85
4199;BME280;2113;50.946;14.610;2023-04-22T02:42:41;96666.91;;;3.07;88.85
4199;BME280;2113;50.946;14.610;2023-04-22T02:45:11;96662.69;;;3.06;88.75
4199;BME280;2113;50.946;14.610;2023-04-22T02:47:39;96666.81;;;3.09;88.39
4199;BME280;2113;50.946;14.610;2023-04-22T02:50:08;96663.41;;;2.96;87.87
4199;BME280;2113;50.946;14.610;2023-04-22T02:52:37;96660.63;;;2.86;88.09
4199;BME280;2113;50.946;14.610;2023-04-22T02:55:08;96661.13;;;2.91;88.44
4199;BME280;2113;50.946;14.610;2023-04-22T02:57:36;96660.19;;;2.92;88.56
4199;BME280;2113;50.946;14.610;2023-04-22T03:00:08;96660.31;;;2.91;88.27
4199;BME280;2113;50.946;14.610;2023-04-22T03:02:37;96659.47;;;2.90;88.39
4199;BME280;2113;50.946;14.610;2023-04-22T03:05:09;96657.63;;;2.92;88.46
4199;BME280;2113;50.946;14.610;2023-04-22T03:07:38;96659.56;;;3.01;88.14
4199;BME280;2113;50.946;14.610;2023-04-22T03:10:09;96655.38;;;3.00;87.85
4199;BME280;2113;50.946;14.610;2023-04-22T03:12:38;96647.84;;;3.10;86.79
4199;BME280;2113;50.946;14.610;2023-04-22T03:15:07;96648.03;;;3.07;87.01
4199;BME280;2113;50.946;14.610;2023-04-22T03:17:35;96645.66;;;2.91;87.35
4199;BME280;2113;50.946;14.610;2023-04-22T03:20:09;96646.47;;;2.92;87.45
4199;BME280;2113;50.946;14.610;2023-04-22T03:22:38;96646.59;;;2.90;87.29
4199;BME280;2113;50.946;14.610;2023-04-22T03:25:10;96645.25;;;2.97;86.83
4199;BME280;2113;50.946;14.610;2023-04-22T03:27:39;96644.53;;;3.20;85.68
4199;BME280;2113;50.946;14.610;2023-04-22T03:30:08;96635.00;;;3.34;84.58
4199;BME280;2113;50.946;14.610;2023-04-22T03:32:36;96642.44;;;3.38;84.56
4199;BME280;2113;50.946;14.610;2023-04-22T03:35:18;96641.81;;;3.47;83.39
4199;BME280;2113;50.946;14.610;2023-04-22T03:37:49;96647.16;;;3.57;82.84
4199;BME280;2113;50.946;14.610;2023-04-22T03:40:25;96643.44;;;3.61;81.90
4199;BME280;2113;50.946;14.610;2023-04-22T03:42:54;96643.13;;;3.66;81.88
4199;BME280;2113;50.946;14.610;2023-04-22T03:45:23;96644.78;;;3.67;81.48
4199;BME280;2113;50.946;14.610;2023-04-22T03:48:05;96645.22;;;3.84;81.27
4199;BME280;2113;50.946;14.610;2023-04-22T03:50:40;96646.50;;;3.79;81.20
4199;BME280;2113;50.946;14.610;2023-04-22T03:53:08;96650.66;;;3.69;81.62
4199;BME280;2113;50.946;14.610;2023-04-22T03:55:39;96651.44;;;3.69;81.85
4199;BME280;2113;50.946;14.610;2023-04-22T03:58:07;96652.03;;;3.85;79.58
4199;BME280;2113;50.946;14.610;2023-04-22T04:00:36;96651.06;;;3.99;80.76
4199;BME280;2113;50.946;14.610;2023-04-22T04:03:09;96653.19;;;3.81;80.68
4199;BME280;2113;50.946;14.610;2023-04-22T04:05:38;96648.34;;;3.77;80.73
4199;BME280;2113;50.946;14.610;2023-04-22T04:08:08;96642.22;;;3.90;79.76
4199;BME280;2113;50.946;14.610;2023-04-22T04:10:36;96643.81;;;4.04;79.20
4199;BME280;2113;50.946;14.610;2023-04-22T04:13:07;96647.00;;;4.08;78.74
4199;BME280;2113;50.946;14.610;2023-04-22T04:15:45;96653.13;;;4.07;79.50
4199;BME280;2113;50.946;14.610;2023-04-22T04:18:16;96646.72;;;4.47;76.51
4199;BME280;2113;50.946;14.610;2023-04-22T04:20:45;96648.59;;;4.45;77.45
4199;BME280;2113;50.946;14.610;2023-04-22T04:23:14;96648.81;;;4.42;76.95
4199;BME280;2113;50.946;14.610;2023-04-22T04:25:44;96644.78;;;4.62;75.54
4199;BME280;2113;50.946;14.610;2023-04-22T04:28:15;96646.09;;;4.79;74.39
4199;BME280;2113;50.946;14.610;2023-04-22T04:30:43;96645.53;;;4.97;73.92
4199;BME280;2113;50.946;14.610;2023-04-22T04:33:12;96643.00;;;5.53;71.14
4199;BME280;2113;50.946;14.610;2023-04-22T04:35:44;96643.22;;;5.61;71.38
4199;BME280;2113;50.946;14.610;2023-04-22T04:38:19;96641.13;;;5.44;72.01
4199;BME280;2113;50.946;14.610;2023-04-22T04:40:49;96647.47;;;5.40;72.52
4199;BME280;2113;50.946;14.610;2023-04-22T04:43:23;96653.47;;;5.29;73.81
4199;BME280;2113;50.946;14.610;2023-04-22T04:46:05;96651.66;;;4.96;76.17
4199;BME280;2113;50.946;14.610;2023-04-22T04:48:36;96640.91;;;4.79;77.55
4199;BME280;2113;50.946;14.610;2023-04-22T04:51:06;96648.94;;;4.76;78.16
4199;BME280;2113;50.946;14.610;2023-04-22T04:53:41;96650.94;;;4.94;76.00
4199;BME280;2113;50.946;14.610;2023-04-22T04:56:10;96653.59;;;5.28;74.98
4199;BME280;2113;50.946;14.610;2023-04-22T04:58:41;96647.84;;;5.58;72.93
4199;BME280;2113;50.946;14.610;2023-04-22T05:01:15;96649.09;;;5.97;71.24
4199;BME280;2113;50.946;14.610;2023-04-22T05:03:45;96650.47;;;6.12;70.45
4199;BME280;2113;50.946;14.610;2023-04-22T05:06:16;96651.81;;;6.38;68.67
4199;BME280;2113;50.946;14.610;2023-04-22T05:08:59;96646.28;;;6.64;67.18
4199;BME280;2113;50.946;14.610;2023-04-22T05:11:27;96644.63;;;6.84;65.55
4199;BME280;2113;50.946;14.610;2023-04-22T05:13:59;96646.75;;;7.10;63.63
4199;BME280;2113;50.946;14.610;2023-04-22T05:16:32;96648.69;;;7.18;64.35
4199;BME280;2113;50.946;14.610;2023-04-22T05:19:02;96651.94;;;7.10;66.04
4199;BME280;2113;50.946;14.610;2023-04-22T05:21:32;96655.03;;;7.04;66.11
4199;BME280;2113;50.946;14.610;2023-04-22T05:24:00;96652.22;;;7.17;65.46
4199;BME280;2113;50.946;14.610;2023-04-22T05:26:28;96647.47;;;7.53;63.75
4199;BME280;2113;50.946;14.610;2023-04-22T05:28:59;96650.97;;;7.72;62.41
4199;BME280;2113;50.946;14.610;2023-04-22T05:31:27;96649.34;;;7.81;64.21
4199;BME280;2113;50.946;14.610;2023-04-22T05:33:56;96650.31;;;7.80;63.24
4199;BME280;2113;50.946;14.610;2023-04-22T05:36:24;96651.88;;;7.92;62.72
4199;BME280;2113;50.946;14.610;2023-04-22T05:38:57;96649.41;;;8.00;62.22
4199;BME280;2113;50.946;14.610;2023-04-22T05:41:27;96651.63;;;8.14;60.13
4199;BME280;2113;50.946;14.610;2023-04-22T05:43:59;96653.31;;;8.35;60.04
4199;BME280;2113;50.946;14.610;2023-04-22T05:46:28;96653.75;;;8.40;61.69
4199;BME280;2113;50.946;14.610;2023-04-22T05:48:57;96654.72;;;8.58;61.56
4199;BME280;2113;50.946;14.610;2023-04-22T05:51:44;96657.31;;;8.87;61.06
4199;BME280;2113;50.946;14.610;2023-04-22T05:54:18;96650.69;;;9.02;63.92
4199;BME280;2113;50.946;14.610;2023-04-22T05:56:47;96652.34;;;9.13;60.07
4199;BME280;2113;50.946;14.610;2023-04-22T05:59:17;96643.25;;;9.26;59.97
4199;BME280;2113;50.946;14.610;2023-04-22T06:01:48;96650.50;;;9.42;60.69
4199;BME280;2113;50.946;14.610;2023-04-22T06:04:18;96650.69;;;9.58;60.95
4199;BME280;2113;50.946;14.610;2023-04-22T06:06:49;96647.50;;;9.65;62.40
4199;BME280;2113;50.946;14.610;2023-04-22T06:09:20;96651.72;;;9.75;62.10
4199;BME280;2113;50.946;14.610;2023-04-22T06:11:48;96648.53;;;10.09;58.29
4199;BME280;2113;50.946;14.610;2023-04-22T06:14:19;96658.03;;;10.27;56.69
4199;BME280;2113;50.946;14.610;2023-04-22T06:16:47;96653.00;;;10.44;55.68
4199;BME280;2113;50.946;14.610;2023-04-22T06:19:19;96648.91;;;10.59;52.39
4199;BME280;2113;50.946;14.610;2023-04-22T06:21:48;96646.78;;;10.80;52.22
4199;BME280;2113;50.946;14.610;2023-04-22T06:24:18;96649.41;;;10.80;54.91
4199;BME280;2113;50.946;14.610;2023-04-22T06:26:46;96655.72;;;10.95;53.30
4199;BME280;2113;50.946;14.610;2023-04-22T06:29:15;96648.94;;;11.02;51.72
4199;BME280;2113;50.946;14.610;2023-04-22T06:31:45;96651.75;;;11.09;50.95
4199;BME280;2113;50.946;14.610;2023-04-22T06:34:13;96651.19;;;11.23;51.60
4199;BME280;2113;50.946;14.610;2023-04-22T06:36:42;96654.03;;;11.30;49.47
4199;BME280;2113;50.946;14.610;2023-04-22T06:39:11;96650.84;;;11.44;50.00
4199;BME280;2113;50.946;14.610;2023-04-22T06:41:57;96651.19;;;11.49;49.07
4199;BME280;2113;50.946;14.610;2023-04-22T06:44:44;96641.94;;;11.63;50.83
4199;BME280;2113;50.946;14.610;2023-04-22T06:47:39;96645.66;;;11.78;48.79
4199;BME280;2113;50.946;14.610;2023-04-22T06:50:12;96643.25;;;11.85;48.57
4199;BME280;2113;50.946;14.610;2023-04-22T06:52:51;96647.69;;;11.92;46.97
4199;BME280;2113;50.946;14.610;2023-04-22T06:55:21;96644.97;;;12.10;47.97
4199;BME280;2113;50.946;14.610;2023-04-22T06:57:49;96639.84;;;13.07;44.80
4199;BME280;2113;50.946;14.610;2023-04-22T07:00:22;96638.72;;;16.95;36.75
4199;BME280;2113;50.946;14.610;2023-04-22T07:02:53;96633.94;;;19.10;32.34
4199;BME280;2113;50.946;14.610;2023-04-22T07:05:21;96630.25;;;19.71;32.09
4199;BME280;2113;50.946;14.610;2023-04-22T07:07:50;96628.88;;;20.71;29.32
4199;BME280;2113;50.946;14.610;2023-04-22T07:10:21;96629.22;;;20.43;28.28
4199;BME280;2113;50.946;14.610;2023-04-22T07:17:03;96625.44;;;22.61;27.01
4199;BME280;2113;50.946;14.610;2023-04-22T07:19:33;96625.38;;;21.76;28.51
4199;BME280;2113;50.946;14.610;2023-04-22T07:22:02;96624.59;;;21.94;25.91
4199;BME280;2113;50.946;14.610;2023-04-22T07:24:32;96619.47;;;22.29;27.05
4199;BME280;2113;50.946;14.610;2023-04-22T07:27:01;96626.72;;;23.00;25.81
4199;BME280;2113;50.946;14.610;2023-04-22T07:29:31;96621.13;;;22.78;26.27
4199;BME280;2113;50.946;14.610;2023-04-22T07:31:59;96623.84;;;19.98;29.03
4199;BME280;2113;50.946;14.610;2023-04-22T07:34:28;96624.09;;;20.48;30.39
4199;BME280;2113;50.946;14.610;2023-04-22T07:36:58;96628.53;;;20.03;29.96
4199;BME280;2113;50.946;14.610;2023-04-22T07:39:27;96620.50;;;21.30;28.37
4199;BME280;2113;50.946;14.610;2023-04-22T07:41:55;96625.63;;;21.50;27.70
4199;BME280;2113;50.946;14.610;2023-04-22T07:44:24;96629.88;;;20.25;28.28
4199;BME280;2113;50.946;14.610;2023-04-22T07:46:52;96627.56;;;20.80;28.02
4199;BME280;2113;50.946;14.610;2023-04-22T07:49:21;96635.34;;;20.43;28.04
4199;BME280;2113;50.946;14.610;2023-04-22T07:51:50;96635.63;;;20.67;28.41
4199;BME280;2113;50.946;14.610;2023-04-22T07:54:20;96632.41;;;20.58;28.84
4199;BME280;2113;50.946;14.610;2023-04-22T07:56:48;96617.69;;;21.68;28.06
4199;BME280;2113;50.946;14.610;2023-04-22T07:59:17;96631.81;;;21.69;26.32
4199;BME280;2113;50.946;14.610;2023-04-22T08:01:45;96630.78;;;21.20;26.82
4199;BME280;2113;50.946;14.610;2023-04-22T08:04:15;96629.75;;;20.07;27.78
4199;BME280;2113;50.946;14.610;2023-04-22T08:06:43;96619.66;;;21.54;27.61
4199;BME280;2113;50.946;14.610;2023-04-22T08:09:12;96623.75;;;22.00;27.11
4199;BME280;2113;50.946;14.610;2023-04-22T08:11:42;96620.38;;;22.41;26.52
4199;BME280;2113;50.946;14.610;2023-04-22T08:14:10;96619.56;;;22.70;25.24
4199;BME280;2113;50.946;14.610;2023-04-22T08:16:40;96613.38;;;21.49;28.41
4199;BME280;2113;50.946;14.610;2023-04-22T08:19:08;96611.63;;;21.11;28.65
4199;BME280;2113;50.946;14.610;2023-04-22T08:21:36;96616.69;;;21.19;27.78
4199;BME280;2113;50.946;14.610;2023-04-22T08:24:05;96619.13;;;21.21;25.68
4199;BME280;2113;50.946;14.610;2023-04-22T08:26:34;96615.75;;;21.07;28.02
4199;BME280;2113;50.946;14.610;2023-04-22T08:32:14;96621.56;;;21.47;25.04
4199;BME280;2113;50.946;14.610;2023-04-22T08:41:30;96610.03;;;23.81;25.19
4199;BME280;2113;50.946;14.610;2023-04-22T08:44:35;96625.31;;;23.51;23.16
4199;BME280;2113;50.946;14.610;2023-04-22T08:47:06;96621.75;;;23.68;24.65
4199;BME280;2113;50.946;14.610;2023-04-22T08:49:37;96622.22;;;21.86;25.46
4199;BME280;2113;50.946;14.610;2023-04-22T08:52:05;96624.94;;;21.36;26.02
4199;BME280;2113;50.946;14.610;2023-04-22T08:54:35;96623.59;;;22.91;24.24
4199;BME280;2113;50.946;14.610;2023-04-22T08:57:04;96623.78;;;23.20;25.21
4199;BME280;2113;50.946;14.610;2023-04-22T08:59:34;96621.13;;;23.43;25.31
4199;BME280;2113;50.946;14.610;2023-04-22T09:02:04;96621.63;;;21.84;27.47
4199;BME280;2113;50.946;14.610;2023-04-22T09:04:33;96628.22;;;22.66;25.66
4199;BME280;2113;50.946;14.610;2023-04-22T09:07:04;96623.34;;;21.53;25.75
4199;BME280;2113;50.946;14.610;2023-04-22T09:09:34;96619.13;;;22.25;25.64
4199;BME280;2113;50.946;14.610;2023-04-22T09:12:03;96619.19;;;22.37;25.87
4199;BME280;2113;50.946;14.610;2023-04-22T09:14:32;96619.38;;;22.84;24.46
4199;BME280;2113;50.946;14.610;2023-04-22T09:17:01;96622.03;;;21.62;25.98
4199;BME280;2113;50.946;14.610;2023-04-22T09:19:30;96612.81;;;22.98;26.22
4199;BME280;2113;50.946;14.610;2023-04-22T09:21:58;96605.84;;;22.25;25.43
4199;BME280;2113;50.946;14.610;2023-04-22T09:24:28;96605.06;;;22.37;24.61
4199;BME280;2113;50.946;14.610;2023-04-22T09:27:00;96601.34;;;22.26;26.21
4199;BME280;2113;50.946;14.610;2023-04-22T09:29:30;96614.81;;;21.70;26.30
4199;BME280;2113;50.946;14.610;2023-04-22T09:31:58;96606.69;;;22.38;26.68
4199;BME280;2113;50.946;14.610;2023-04-22T09:37:29;96606.22;;;22.11;26.44
4199;BME280;2113;50.946;14.610;2023-04-22T09:40:17;96599.09;;;21.18;29.71
4199;BME280;2113;50.946;14.610;2023-04-22T09:42:50;96606.41;;;20.67;25.35
4199;BME280;2113;50.946;14.610;2023-04-22T09:45:27;96597.66;;;22.09;25.10
4199;BME280;2113;50.946;14.610;2023-04-22T09:47:56;96593.53;;;21.88;25.76
4199;BME280;2113;50.946;14.610;2023-04-22T09:50:27;96605.63;;;20.91;26.59
4199;BME280;2113;50.946;14.610;2023-04-22T09:52:59;96599.38;;;21.60;26.23
4199;BME280;2113;50.946;14.610;2023-04-22T09:55:31;96603.41;;;22.06;24.57
4199;BME280;2113;50.946;14.610;2023-04-22T09:58:04;96595.00;;;21.22;25.62
4199;BME280;2113;50.946;14.610;2023-04-22T10:00:36;96591.47;;;21.53;26.70
4199;BME280;2113;50.946;14.610;2023-04-22T10:03:07;96592.88;;;21.99;24.66
4199;BME280;2113;50.946;14.610;2023-04-22T10:05:37;96584.97;;;21.49;25.73
4199;BME280;2113;50.946;14.610;2023-04-22T10:08:09;96584.66;;;21.39;25.69
4199;BME280;2113;50.946;14.610;2023-04-22T10:10:42;96569.94;;;20.62;26.48
4199;BME280;2113;50.946;14.610;2023-04-22T10:13:10;96577.00;;;21.68;26.26
4199;BME280;2113;50.946;14.610;2023-04-22T10:15:40;96576.69;;;22.60;25.83
4199;BME280;2113;50.946;14.610;2023-04-22T10:18:12;96571.72;;;21.24;26.02
4199;BME280;2113;50.946;14.610;2023-04-22T10:20:43;96563.09;;;22.39;24.65
4199;BME280;2113;50.946;14.610;2023-04-22T10:23:16;96565.00;;;22.61;23.78
4199;BME280;2113;50.946;14.610;2023-04-22T10:25:48;96570.16;;;21.96;25.59
4199;BME280;2113;50.946;14.610;2023-04-22T10:28:17;96563.13;;;21.84;26.11
4199;BME280;2113;50.946;14.610;2023-04-22T10:30:48;96561.94;;;21.80;26.05
4199;BME280;2113;50.946;14.610;2023-04-22T10:33:35;96552.28;;;21.67;25.70
4199;BME280;2113;50.946;14.610;2023-04-22T10:36:10;96567.22;;;20.93;27.49
4199;BME280;2113;50.946;14.610;2023-04-22T10:39:15;96546.59;;;20.96;25.25
4199;BME280;2113;50.946;14.610;2023-04-22T10:41:57;96555.59;;;20.32;26.59
4199;BME280;2113;50.946;14.610;2023-04-22T10:44:48;96545.50;;;21.71;28.46
4199;BME280;2113;50.946;14.610;2023-04-22T10:47:27;96543.28;;;21.68;24.67
4199;BME280;2113;50.946;14.610;2023-04-22T10:50:10;96537.56;;;20.09;30.00
4199;BME280;2113;50.946;14.610;2023-04-22T10:52:39;96539.00;;;20.49;28.10
4199;BME280;2113;50.946;14.610;2023-04-22T10:55:08;96532.69;;;21.00;27.70
4199;BME280;2113;50.946;14.610;2023-04-22T10:57:40;96538.13;;;20.11;29.26
4199;BME280;2113;50.946;14.610;2023-04-22T11:03:25;96525.44;;;20.89;26.94
4199;BME280;2113;50.946;14.610;2023-04-22T11:06:12;96526.88;;;21.10;29.92
4199;BME280;2113;50.946;14.610;2023-04-22T11:08:43;96522.72;;;20.39;27.80
4199;BME280;2113;50.946;14.610;2023-04-22T11:11:12;96533.75;;;20.68;28.63
4199;BME280;2113;50.946;14.610;2023-04-22T11:13:42;96517.13;;;21.04;27.68
4199;BME280;2113;50.946;14.610;2023-04-22T11:16:11;96516.91;;;20.55;27.74
4199;BME280;2113;50.946;14.610;2023-04-22T11:18:40;96512.69;;;19.45;26.79
4199;BME280;2113;50.946;14.610;2023-04-22T11:21:08;96521.75;;;19.89;29.63
4199;BME280;2113;50.946;14.610;2023-04-22T11:23:37;96515.81;;;19.94;28.98
4199;BME280;2113;50.946;14.610;2023-04-22T11:26:05;96515.16;;;20.68;30.39
4199;BME280;2113;50.946;14.610;2023-04-22T11:28:34;96507.31;;;21.04;28.25
4199;BME280;2113;50.946;14.610;2023-04-22T11:31:13;96518.84;;;20.91;26.90
4199;BME280;2113;50.946;14.610;2023-04-22T11:33:42;96513.50;;;20.98;27.04
4199;BME280;2113;50.946;14.610;2023-04-22T11:36:12;96513.66;;;20.78;30.03
4199;BME280;2113;50.946;14.610;2023-04-22T11:38:41;96512.56;;;21.11;28.70
4199;BME280;2113;50.946;14.610;2023-04-22T11:41:09;96509.97;;;20.54;27.85
4199;BME280;2113;50.946;14.610;2023-04-22T11:43:45;96498.38;;;20.99;30.59
4199;BME280;2113;50.946;14.610;2023-04-22T11:46:15;96501.78;;;20.81;29.25
4199;BME280;2113;50.946;14.610;2023-04-22T11:48:45;96501.19;;;20.22;30.47
4199;BME280;2113;50.946;14.610;2023-04-22T11:51:13;96501.53;;;20.33;31.38
4199;BME280;2113;50.946;14.610;2023-04-22T11:53:49;96490.25;;;20.44;30.54
4199;BME280;2113;50.946;14.610;2023-04-22T11:56:19;96497.75;;;19.71;29.27
4199;BME280;2113;50.946;14.610;2023-04-22T11:58:48;96500.59;;;20.14;30.39
4199;BME280;2113;50.946;14.610;2023-04-22T12:01:17;96504.66;;;19.78;28.02
4199;BME280;2113;50.946;14.610;2023-04-22T12:03:46;96498.66;;;19.32;30.32
4199;BME280;2113;50.946;14.610;2023-04-22T12:06:16;96490.34;;;20.24;29.64
4199;BME280;2113;50.946;14.610;2023-04-22T12:08:44;96495.94;;;20.97;28.34
4199;BME280;2113;50.946;14.610;2023-04-22T12:11:13;96491.75;;;20.27;28.84
4199;BME280;2113;50.946;14.610;2023-04-22T12:13:43;96490.75;;;20.84;29.40
4199;BME280;2113;50.946;14.610;2023-04-22T12:16:14;96487.91;;;20.54;29.09
4199;BME280;2113;50.946;14.610;2023-04-22T12:18:49;96487.13;;;20.22;29.11
4199;BME280;2113;50.946;14.610;2023-04-22T12:21:19;96485.47;;;19.83;28.63
4199;BME280;2113;50.946;14.610;2023-04-22T12:23:50;96486.72;;;19.09;29.69
4199;BME280;2113;50.946;14.610;2023-04-22T12:26:21;96478.03;;;19.67;33.35
4199;BME280;2113;50.946;14.610;2023-04-22T12:28:53;96479.81;;;19.79;29.57
4199;BME280;2113;50.946;14.610;2023-04-22T12:31:22;96483.53;;;19.65;30.54
4199;BME280;2113;50.946;14.610;2023-04-22T12:33:52;96480.56;;;19.15;28.36
4199;BME280;2113;50.946;14.610;2023-04-22T12:36:21;96481.31;;;19.42;31.18
4199;BME280;2113;50.946;14.610;2023-04-22T12:38:51;96472.34;;;19.57;29.38
4199;BME280;2113;50.946;14.610;2023-04-22T12:41:19;96469.56;;;20.21;32.04
4199;BME280;2113;50.946;14.610;2023-04-22T12:43:48;96478.44;;;19.64;28.86
4199;BME280;2113;50.946;14.610;2023-04-22T12:46:18;96479.13;;;19.33;29.36
4199;BME280;2113;50.946;14.610;2023-04-22T12:48:47;96469.06;;;19.61;30.85
4199;BME280;2113;50.946;14.610;2023-04-22T12:51:18;96470.03;;;19.09;29.60
4199;BME280;2113;50.946;14.610;2023-04-22T12:53:48;96467.06;;;19.43;31.36
4199;BME280;2113;50.946;14.610;2023-04-22T12:56:16;96459.34;;;19.35;29.05
4199;BME280;2113;50.946;14.610;2023-04-22T12:58:46;96461.09;;;18.90;30.56
4199;BME280;2113;50.946;14.610;2023-04-22T13:01:15;96459.84;;;18.86;30.14
4199;BME280;2113;50.946;14.610;2023-04-22T13:03:44;96454.50;;;19.19;32.60
4199;BME280;2113;50.946;14.610;2023-04-22T13:06:12;96444.66;;;19.46;31.42
4199;BME280;2113;50.946;14.610;2023-04-22T13:08:42;96445.44;;;19.60;31.56
4199;BME280;2113;50.946;14.610;2023-04-22T13:11:10;96451.53;;;18.96;30.47
4199;BME280;2113;50.946;14.610;2023-04-22T13:13:38;96447.59;;;19.18;31.35
4199;BME280;2113;50.946;14.610;2023-04-22T13:16:07;96446.31;;;19.27;31.93
4199;BME280;2113;50.946;14.610;2023-04-22T13:18:35;96434.25;;;19.44;30.40
4199;BME280;2113;50.946;14.610;2023-04-22T13:21:04;96434.06;;;19.46;29.74
4199;BME280;2113;50.946;14.610;2023-04-22T13:23:33;96436.50;;;19.41;31.48
4199;BME280;2113;50.946;14.610;2023-04-22T13:26:03;96431.75;;;20.01;29.53
4199;BME280;2113;50.946;14.610;2023-04-22T13:28:31;96429.44;;;19.79;30.55
4199;BME280;2113;50.946;14.610;2023-04-22T13:31:00;96423.81;;;20.01;31.57
4199;BME280;2113;50.946;14.610;2023-04-22T13:33:28;96426.50;;;19.94;29.60
4199;BME280;2113;50.946;14.610;2023-04-22T13:35:59;96418.53;;;19.63;30.19
4199;BME280;2113;50.946;14.610;2023-04-22T13:38:27;96417.63;;;20.88;30.03
4199;BME280;2113;50.946;14.610;2023-04-22T13:40:56;96422.47;;;20.73;30.62
4199;BME280;2113;50.946;14.610;2023-04-22T13:43:28;96419.75;;;19.67;29.73
4199;BME280;2113;50.946;14.610;2023-04-22T13:45:56;96419.13;;;19.00;29.06
4199;BME280;2113;50.946;14.610;2023-04-22T13:48:24;96420.38;;;18.91;29.94
4199;BME280;2113;50.946;14.610;2023-04-22T13:50:53;96417.50;;;19.64;30.30
4199;BME280;2113;50.946;14.610;2023-04-22T13:53:21;96419.47;;;19.24;28.03
4199;BME280;2113;50.946;14.610;2023-04-22T13:55:50;96405.69;;;19.60;29.67
4199;BME280;2113;50.946;14.610;2023-04-22T13:58:19;96412.13;;;19.77;30.09